createdAt,value
2022-08-05T07:32:12.798Z,100131.47
2022-08-05T07:42:21.761Z,100129.53
2022-08-05T07:52:46.786Z,100135.50
2022-08-05T08:03:15.294Z,100129.50
2022-08-05T08:13:22.121Z,100130.41
2022-08-05T08:24:01.408Z,100131.94
2022-08-05T08:33:54.180Z,100125.66
2022-08-05T08:45:18.162Z,100128.22
2022-08-05T08:54:22.397Z,100122.97
2022-08-05T09:04:31.212Z,100123.44
2022-08-05T09:14:57.811Z,100120.78
2022-08-05T09:25:01.609Z,100094.56
2022-08-05T09:35:10.726Z,100084.28
2022-08-05T09:46:06.056Z,100078.59
2022-08-05T09:56:13.037Z,100079.09
2022-08-05T10:06:20.675Z,100049.72
2022-08-05T10:16:32.257Z,100062.66
2022-08-05T10:26:51.320Z,100051.25
2022-08-05T10:36:54.462Z,100038.75
2022-08-05T10:46:57.877Z,100037.66
2022-08-05T10:56:59.850Z,100034.25
2022-08-05T11:07:01.647Z,100018.66
2022-08-05T11:17:57.194Z,100016.94
2022-08-05T11:27:51.919Z,100009.84
2022-08-05T11:38:27.961Z,100005.53
2022-08-05T11:48:30.055Z,100014.91
2022-08-05T11:58:36.426Z,100018.03
2022-08-05T12:08:55.485Z,100007.88
2022-08-05T12:18:57.926Z,100000.00
2022-08-05T12:29:09.490Z,99986.13
2022-08-05T12:39:14.034Z,99995.84
2022-08-05T12:49:18.911Z,99991.72
2022-08-05T12:59:27.682Z,99981.50
2022-08-05T13:10:01.014Z,99972.06
2022-08-05T13:20:23.591Z,99957.81
2022-08-05T13:30:37.046Z,99944.41
2022-08-05T13:40:49.992Z,99929.41
2022-08-05T13:51:06.826Z,99924.78
2022-08-05T14:01:10.878Z,99905.16
2022-08-05T14:11:20.166Z,99899.78
2022-08-05T14:22:08.983Z,99891.03
2022-08-05T14:32:03.971Z,99890.31
2022-08-05T14:42:21.294Z,99884.34
2022-08-05T14:52:50.536Z,99880.56
2022-08-05T15:02:49.646Z,99867.50
2022-08-05T15:13:00.880Z,99865.19
2022-08-05T15:23:10.746Z,99852.94
2022-08-05T15:34:04.146Z,99837.53
2022-08-05T15:43:45.822Z,99831.75
2022-08-05T15:53:51.972Z,99826.84
2022-08-05T16:03:53.701Z,99825.88
2022-08-05T16:13:55.495Z,99826.41
2022-08-05T16:24:02.975Z,99823.00
2022-08-05T16:34:05.753Z,99829.75
2022-08-05T16:44:16.434Z,99811.72
2022-08-05T16:54:24.887Z,99824.31
2022-08-05T17:04:31.130Z,99818.84
2022-08-05T17:14:38.289Z,99811.06
2022-08-05T17:24:46.378Z,99817.50
2022-08-05T17:35:00.011Z,99821.78
2022-08-05T17:45:09.777Z,99831.59
2022-08-05T17:55:22.753Z,99822.38
2022-08-05T18:05:35.472Z,99815.94
2022-08-05T18:15:41.223Z,99819.88
2022-08-05T18:25:45.064Z,99810.47
2022-08-05T18:35:50.038Z,99831.31
2022-08-05T18:46:09.784Z,99830.84
2022-08-05T18:56:13.961Z,99826.22
2022-08-05T19:06:21.517Z,99845.72
2022-08-05T19:16:28.430Z,99835.31
2022-08-05T19:26:54.761Z,99848.38
2022-08-05T19:37:15.607Z,99850.09
2022-08-05T19:47:17.953Z,99848.91
2022-08-05T19:57:20.178Z,99845.47
2022-08-05T20:07:48.039Z,99850.69
2022-08-05T20:17:50.910Z,99861.59
2022-08-05T20:27:57.539Z,99875.84
2022-08-05T20:38:08.088Z,99883.25
2022-08-05T20:48:10.427Z,99887.19
2022-08-05T20:58:15.395Z,99883.22
2022-08-05T21:08:17.197Z,99881.59
2022-08-05T21:18:23.270Z,99889.50
2022-08-05T21:28:30.885Z,99892.38
2022-08-05T21:38:37.479Z,99902.44
2022-08-05T21:48:47.273Z,99903.19
2022-08-05T21:58:57.371Z,99909.19
2022-08-05T22:08:59.832Z,99913.09
2022-08-05T22:19:02.274Z,99911.31
2022-08-05T22:29:04.774Z,99919.81
2022-08-05T22:39:09.697Z,99908.13
2022-08-05T22:50:18.445Z,99908.53
2022-08-05T22:59:45.489Z,99906.84
2022-08-05T23:09:57.977Z,99903.63
2022-08-05T23:20:16.303Z,99902.22
2022-08-05T23:30:21.372Z,99895.38
2022-08-05T23:40:28.884Z,99884.31
2022-08-05T23:50:31.042Z,99895.94
